Terminal Aerodrome Forecast
Issued by NWS Louisville, KY

Home | Current Version | Previous Version | Text Only | Print | Product List | Glossary On
Versions: 1 2 3 4 5 6 7 8 9 10 11 12 13 14 15 16 17 18 19 20 21 22 23 24
000
FTUS43 KLMK 151909 AAA
TAFSDF
TAF AMD
KSDF 151909Z 1519/1624 20012KT 6SM -SHRA OVC040
     FM152000 22011KT 5SM -SHRA OVC024
     FM152100 23011G16KT 3SM BR BKN008 OVC012
      TEMPO 1522/1524 2SM BR
     FM160200 26008KT P6SM SCT009 BKN015
     FM160230 27007KT P6SM BKN060
     FM161000 30007KT P6SM FEW250=

USA.gov is the U.S. government's official web portal to all federal, state and local government web resources and services.